Terminal Aerodrome Forecast
Issued by NWS Austin/San Antonio, TX

Home | Current Version | Previous Version | Text Only | Print | Product List | Glossary On
Versions: 1 2 3 4 5 6 7 8 9 10 11 12 13 14 15 16 17 18
012
FTUS44 KEWX 202004 AAA
TAFAUS
TAF AMD
KAUS 202004Z 2020/2124 17009KT P6SM SCT015 BKN050
     FM210300 16005KT P6SM BKN012 BKN040
     FM210600 17004KT 6SM BR OVC007
     FM211200 16003KT 3SM BR OVC003
     FM211700 18011KT P6SM BKN015=

USA.gov is the U.S. government's official web portal to all federal, state and local government web resources and services.